The Official Home Page Of The Professional Rodeo Cowboys Association PRCA RAM WORLD STANDINGS
ProRodeoTv.Com
Red

PRCA Stock Statistics

SEARCH BY:
Stock Rodeo Contestant Stock Contractor

Trey Kimzey

EVENT:
Unofficial results reflect placement at time of Web posting and can change.

SEASON BREAKDOWN

Season Attempts Qual Rides Re-rides Ride %
2018 92 32 0 34.78 %
Totals 92 32 0 0.00 %

RODEO DETAIL

Date Location Rodeo SC Brand Ride Comments Stock Score Contestant Score
8/18/2018 Liberal, KS Seward County PRCA Rodeo RG -412 0.00 0.00 / 0.00 0.00 / 0.00
8/17/2018 Eureka, KS Eureka PRCA Rodeo UP 4-4 90.00 22.00 / 22.00 23.00 / 23.00
8/16/2018 Coffeyville, KS Inter-State Rodeo NF L15 0.00 21.00 / 21.00 0.00 / 0.00
8/11/2018 Lawton, OK Lawton Rangers Rodeo BU 467 0.00 19.00 / 20.00 0.00 / 0.00
8/10/2018 Mound City, KS Linn County Fair & Rodeo NF L15 0.00 22.50 / 22.50 0.00 / 0.00
8/8/2018 Sikeston, MO Sikeston Jaycee Bootheel Rodeo PK 404 0.00 21.00 / 22.00 0.00 / 0.00
8/4/2018 Phillipsburg, KS Kansas Biggest Rodeo BU 309 0.00 22.00 / 22.00 0.00 / 0.00
8/3/2018 Sidney, IA Iowa s Championship Rodeo CC 3 0.00 21.50 / 20.50 0.00 / 0.00
8/1/2018 Abilene, KS Wild Bill Hickok Rodeo AN V10 0.00 20.50 / 20.00 0.00 / 0.00
7/29/2018 Monte Vista, CO San Luis Valley Ski-Hi Stampede HL 4 0.00 21.50 / 21.50 0.00 / 0.00
7/28/2018 Burlington, CO Kit Carson County Fair & Rodeo RM 236 80.00 19.00 / 20.00 20.00 / 21.00
7/27/2018 Manhattan, KS Kaw Valley Rodeo RH 405 0.00 21.00 / 20.00 0.00 / 0.00
7/26/2018 Burwell, NE Nebraska s Big Rodeo BU 305 0.00 22.00 / 21.50 0.00 / 0.00
7/23/2018 Ogden, UT Ogden Pioneer Days KR -462 83.50 20.00 / 20.50 21.00 / 22.00
7/22/2018 Salinas, CA California Rodeo Salinas JD 135 0.00 21.50 / 21.00 0.00 / 0.00
7/21/2018 Salinas, CA California Rodeo Salinas JD 302 81.50 19.50 / 20.50 20.50 / 21.00
7/20/2018 Spanish Fork, UT Fiesta Days Rodeo FR H19 0.00 21.00 / 20.00 0.00 / 0.00
7/15/2018 Elko, NV Silver State Stampede BT 297 0.00 21.00 / 22.00 0.00 / 0.00
7/13/2018 Nephi, UT Ute Stampede RO H238 84.00 19.50 / 21.50 20.50 / 22.50
7/13/2018 Gunnison, CO Cattlemen s Days SS 1164 0.00 0.00 / 0.00 0.00 / 0.00
7/12/2018 Laramie, WY Laramie Jubilee Days Xtreme Bulls SM 836 78.00 19.00 / 19.00 20.00 / 20.00
7/8/2018 Hamel, MN Hamel Rodeo & Bull Ridin Bonanza JB 101 72.50 18.00 / 18.50 17.00 / 19.00
7/8/2018 Isanti, MN Isanti Firefighters Xtreme Bulls CP B-J3 79.50 20.00 / 19.50 21.00 / 19.00
7/7/2018 Isanti, MN 42nd Annual Isanti Firefighters Rodeo CP 313 79.00 20.00 / 19.00 21.00 / 19.00
7/7/2018 Hamel, MN Hamel Rodeo & Bull Ridin Bonanza JB 207 76.00 19.00 / 20.50 18.00 / 18.50
Page of 4
Per Page
Official Gear Of The PRCA

 
 
 
PRCA National Sponsors
MGM Grand Polaris Ranger
Copyright © 2018 Professional Rodeo Cowboys Association. All rights reserved. No portion of ProRodeo.com may be duplicated, redistributed or manipulated in any form. By accessing any information beyond this page, you agree to abide by the Terms of Use.
PRCA Wrangler National Finals Rodeo Wrangler ProRodeo Tour Finale Presented by Justin Boots Xtreme Bulls RAM National Circuit Finals Rodeo ProRodeo Gear ProRodeo Tour